sensor_id;sensor_type;location;lat;lon;timestamp;pressure;altitude;pressure_sealevel;temperature;humidity
69971;BME280;57301;50.328;8.542;2023-03-21T00:00:38;98688.69;;;8.87;68.31
69971;BME280;57301;50.328;8.542;2023-03-21T00:03:04;98677.66;;;8.92;68.29
69971;BME280;57301;50.328;8.542;2023-03-21T00:05:31;98683.34;;;8.77;69.11
69971;BME280;57301;50.328;8.542;2023-03-21T00:07:58;98682.97;;;8.92;68.49
69971;BME280;57301;50.328;8.542;2023-03-21T00:10:27;98680.44;;;9.00;68.83
69971;BME280;57301;50.328;8.542;2023-03-21T00:13:08;98677.34;;;8.95;68.47
69971;BME280;57301;50.328;8.542;2023-03-21T00:15:39;98680.03;;;9.04;68.77
69971;BME280;57301;50.328;8.542;2023-03-21T00:18:29;98681.97;;;8.93;68.41
69971;BME280;57301;50.328;8.542;2023-03-21T00:21:00;98666.97;;;8.82;68.76
69971;BME280;57301;50.328;8.542;2023-03-21T00:23:47;98669.22;;;8.86;69.57
69971;BME280;57301;50.328;8.542;2023-03-21T00:26:14;98665.88;;;8.94;69.56
69971;BME280;57301;50.328;8.542;2023-03-21T00:28:41;98669.50;;;8.83;69.22
69971;BME280;57301;50.328;8.542;2023-03-21T00:31:09;98658.03;;;8.73;69.96
69971;BME280;57301;50.328;8.542;2023-03-21T00:33:35;98663.06;;;8.67;70.92
69971;BME280;57301;50.328;8.542;2023-03-21T00:36:05;98659.69;;;8.55;70.74
69971;BME280;57301;50.328;8.542;2023-03-21T00:38:33;98667.50;;;8.56;70.99
69971;BME280;57301;50.328;8.542;2023-03-21T00:41:01;98667.00;;;8.72;70.98
69971;BME280;57301;50.328;8.542;2023-03-21T00:43:42;98662.78;;;8.79;71.37
69971;BME280;57301;50.328;8.542;2023-03-21T00:46:09;98658.16;;;8.81;71.03
69971;BME280;57301;50.328;8.542;2023-03-21T00:48:35;98652.69;;;8.83;71.12
69971;BME280;57301;50.328;8.542;2023-03-21T00:51:10;98653.13;;;8.88;71.67
69971;BME280;57301;50.328;8.542;2023-03-21T00:53:37;98653.84;;;9.00;71.24
69971;BME280;57301;50.328;8.542;2023-03-21T00:56:04;98648.09;;;8.95;71.24
69971;BME280;57301;50.328;8.542;2023-03-21T00:58:30;98638.59;;;8.92;71.66
69971;BME280;57301;50.328;8.542;2023-03-21T01:00:57;98648.53;;;9.00;72.64
69971;BME280;57301;50.328;8.542;2023-03-21T01:03:23;98639.69;;;8.99;73.16
69971;BME280;57301;50.328;8.542;2023-03-21T01:05:52;98642.94;;;9.03;72.61
69971;BME280;57301;50.328;8.542;2023-03-21T01:08:31;98637.72;;;9.01;73.03
69971;BME280;57301;50.328;8.542;2023-03-21T01:11:18;98640.00;;;8.96;73.48
69971;BME280;57301;50.328;8.542;2023-03-21T01:13:45;98635.34;;;8.88;73.27
69971;BME280;57301;50.328;8.542;2023-03-21T01:16:23;98625.69;;;8.87;73.57
69971;BME280;57301;50.328;8.542;2023-03-21T01:18:50;98623.91;;;8.78;75.02
69971;BME280;57301;50.328;8.542;2023-03-21T01:21:17;98628.91;;;8.81;75.32
69971;BME280;57301;50.328;8.542;2023-03-21T01:23:44;98622.75;;;8.71;74.92
69971;BME280;57301;50.328;8.542;2023-03-21T01:26:12;98623.03;;;8.68;75.00
69971;BME280;57301;50.328;8.542;2023-03-21T01:28:40;98626.38;;;8.70;75.23
69971;BME280;57301;50.328;8.542;2023-03-21T01:31:08;98628.63;;;8.75;76.24
69971;BME280;57301;50.328;8.542;2023-03-21T01:33:35;98633.25;;;8.63;77.17
69971;BME280;57301;50.328;8.542;2023-03-21T01:36:02;98622.47;;;8.55;77.30
69971;BME280;57301;50.328;8.542;2023-03-21T01:38:39;98623.28;;;8.46;77.73
69971;BME280;57301;50.328;8.542;2023-03-21T01:41:06;98619.63;;;8.47;77.63
69971;BME280;57301;50.328;8.542;2023-03-21T01:43:45;98616.44;;;8.53;76.93
69971;BME280;57301;50.328;8.542;2023-03-21T01:46:30;98615.44;;;8.44;78.24
69971;BME280;57301;50.328;8.542;2023-03-21T01:49:27;98611.66;;;8.37;78.61
69971;BME280;57301;50.328;8.542;2023-03-21T01:52:02;98616.25;;;8.35;78.13
69971;BME280;57301;50.328;8.542;2023-03-21T01:54:42;98605.66;;;8.45;78.48
69971;BME280;57301;50.328;8.542;2023-03-21T01:57:15;98618.78;;;8.37;78.54
69971;BME280;57301;50.328;8.542;2023-03-21T01:59:47;98606.72;;;8.23;79.29
69971;BME280;57301;50.328;8.542;2023-03-21T02:02:20;98613.66;;;8.14;79.76
69971;BME280;57301;50.328;8.542;2023-03-21T02:04:48;98612.38;;;8.08;79.74
69971;BME280;57301;50.328;8.542;2023-03-21T02:07:27;98608.91;;;8.08;80.13
69971;BME280;57301;50.328;8.542;2023-03-21T02:09:55;98612.09;;;8.02;79.89
69971;BME280;57301;50.328;8.542;2023-03-21T02:12:24;98598.50;;;7.95;80.46
69971;BME280;57301;50.328;8.542;2023-03-21T02:14:52;98599.63;;;7.93;80.17
69971;BME280;57301;50.328;8.542;2023-03-21T02:20:21;98598.22;;;7.89;80.84
69971;BME280;57301;50.328;8.542;2023-03-21T02:28:51;98591.47;;;7.75;81.63
69971;BME280;57301;50.328;8.542;2023-03-21T02:31:40;98596.31;;;7.70;81.69
69971;BME280;57301;50.328;8.542;2023-03-21T02:37:04;98580.41;;;7.70;81.86
69971;BME280;57301;50.328;8.542;2023-03-21T02:39:52;98586.25;;;7.64;81.92
69971;BME280;57301;50.328;8.542;2023-03-21T02:45:27;98581.22;;;7.40;82.90
69971;BME280;57301;50.328;8.542;2023-03-21T02:48:00;98572.78;;;7.25;83.44
69971;BME280;57301;50.328;8.542;2023-03-21T02:50:45;98571.03;;;7.14;84.25
69971;BME280;57301;50.328;8.542;2023-03-21T02:53:16;98574.72;;;7.02;83.79
69971;BME280;57301;50.328;8.542;2023-03-21T02:55:44;98573.28;;;6.98;83.92
69971;BME280;57301;50.328;8.542;2023-03-21T02:58:16;98574.19;;;6.87;84.56
69971;BME280;57301;50.328;8.542;2023-03-21T03:00:44;98576.28;;;6.84;84.69
69971;BME280;57301;50.328;8.542;2023-03-21T03:03:11;98571.28;;;6.69;84.92
69971;BME280;57301;50.328;8.542;2023-03-21T03:05:57;98566.50;;;6.63;84.92
69971;BME280;57301;50.328;8.542;2023-03-21T03:08:38;98576.41;;;6.50;85.12
69971;BME280;57301;50.328;8.542;2023-03-21T03:11:30;98576.56;;;6.37;85.70
69971;BME280;57301;50.328;8.542;2023-03-21T03:14:33;98576.63;;;6.26;85.54
69971;BME280;57301;50.328;8.542;2023-03-21T03:17:37;98580.59;;;6.21;85.68
69971;BME280;57301;50.328;8.542;2023-03-21T03:25:38;98571.63;;;5.89;85.87
69971;BME280;57301;50.328;8.542;2023-03-21T03:28:10;98572.47;;;5.79;87.03
69971;BME280;57301;50.328;8.542;2023-03-21T03:30:38;98574.97;;;5.80;86.44
69971;BME280;57301;50.328;8.542;2023-03-21T03:33:15;98569.31;;;5.85;86.88
69971;BME280;57301;50.328;8.542;2023-03-21T03:35:44;98558.97;;;5.82;86.98
69971;BME280;57301;50.328;8.542;2023-03-21T03:38:28;98569.19;;;5.75;87.46
69971;BME280;57301;50.328;8.542;2023-03-21T03:41:01;98560.16;;;5.89;87.20
69971;BME280;57301;50.328;8.542;2023-03-21T03:43:38;98555.72;;;6.01;86.75
69971;BME280;57301;50.328;8.542;2023-03-21T03:46:12;98561.47;;;6.17;85.20
69971;BME280;57301;50.328;8.542;2023-03-21T03:48:50;98565.22;;;6.14;84.67
69971;BME280;57301;50.328;8.542;2023-03-21T03:54:30;98557.91;;;5.96;84.25
69971;BME280;57301;50.328;8.542;2023-03-21T03:56:58;98556.47;;;5.91;85.24
69971;BME280;57301;50.328;8.542;2023-03-21T03:59:24;98556.22;;;5.95;85.52
69971;BME280;57301;50.328;8.542;2023-03-21T04:01:51;98553.69;;;5.93;85.22
69971;BME280;57301;50.328;8.542;2023-03-21T04:04:18;98556.69;;;6.00;85.56
69971;BME280;57301;50.328;8.542;2023-03-21T04:06:48;98556.19;;;6.06;84.66
69971;BME280;57301;50.328;8.542;2023-03-21T04:09:17;98548.59;;;6.12;84.90
69971;BME280;57301;50.328;8.542;2023-03-21T04:11:50;98548.38;;;6.04;85.00
69971;BME280;57301;50.328;8.542;2023-03-21T04:14:16;98549.84;;;6.08;84.53
69971;BME280;57301;50.328;8.542;2023-03-21T04:16:43;98552.22;;;6.11;84.61
69971;BME280;57301;50.328;8.542;2023-03-21T04:19:09;98548.38;;;6.15;85.07
69971;BME280;57301;50.328;8.542;2023-03-21T04:21:36;98537.25;;;6.33;84.86
69971;BME280;57301;50.328;8.542;2023-03-21T04:24:03;98544.44;;;6.31;84.43
69971;BME280;57301;50.328;8.542;2023-03-21T04:26:29;98544.38;;;6.21;85.16
69971;BME280;57301;50.328;8.542;2023-03-21T04:28:58;98539.09;;;6.21;84.92
69971;BME280;57301;50.328;8.542;2023-03-21T04:31:26;98541.34;;;6.26;85.39
69971;BME280;57301;50.328;8.542;2023-03-21T04:33:53;98539.56;;;6.26;85.15
69971;BME280;57301;50.328;8.542;2023-03-21T04:36:21;98535.81;;;6.29;85.14
69971;BME280;57301;50.328;8.542;2023-03-21T04:38:53;98536.00;;;6.37;85.09
69971;BME280;57301;50.328;8.542;2023-03-21T04:41:20;98544.78;;;6.37;84.55
69971;BME280;57301;50.328;8.542;2023-03-21T04:43:46;98541.28;;;6.37;85.20
69971;BME280;57301;50.328;8.542;2023-03-21T04:46:13;98534.78;;;6.41;85.07
69971;BME280;57301;50.328;8.542;2023-03-21T04:48:40;98534.66;;;6.42;84.57
69971;BME280;57301;50.328;8.542;2023-03-21T04:51:07;98533.97;;;6.40;85.07
69971;BME280;57301;50.328;8.542;2023-03-21T04:53:33;98532.84;;;6.43;84.20
69971;BME280;57301;50.328;8.542;2023-03-21T04:56:00;98525.03;;;6.41;84.66
69971;BME280;57301;50.328;8.542;2023-03-21T04:58:27;98531.31;;;6.40;84.65
69971;BME280;57301;50.328;8.542;2023-03-21T05:00:53;98527.94;;;6.38;84.84
69971;BME280;57301;50.328;8.542;2023-03-21T05:03:20;98527.94;;;6.38;85.11
69971;BME280;57301;50.328;8.542;2023-03-21T05:05:47;98527.59;;;6.32;85.36
69971;BME280;57301;50.328;8.542;2023-03-21T05:08:14;98522.44;;;6.30;84.79
69971;BME280;57301;50.328;8.542;2023-03-21T05:10:42;98526.75;;;6.31;84.52
69971;BME280;57301;50.328;8.542;2023-03-21T05:13:08;98525.72;;;6.23;85.31
69971;BME280;57301;50.328;8.542;2023-03-21T05:15:35;98525.50;;;6.14;84.64
69971;BME280;57301;50.328;8.542;2023-03-21T05:18:02;98526.25;;;5.94;86.18
69971;BME280;57301;50.328;8.542;2023-03-21T05:20:38;98530.59;;;5.84;86.50
69971;BME280;57301;50.328;8.542;2023-03-21T05:23:11;98527.00;;;5.74;86.49
69971;BME280;57301;50.328;8.542;2023-03-21T05:25:38;98533.13;;;5.74;86.71
69971;BME280;57301;50.328;8.542;2023-03-21T05:28:06;98528.59;;;5.65;86.72
69971;BME280;57301;50.328;8.542;2023-03-21T05:30:33;98533.28;;;5.61;87.68
69971;BME280;57301;50.328;8.542;2023-03-21T05:32:59;98531.59;;;5.72;86.81
69971;BME280;57301;50.328;8.542;2023-03-21T05:35:26;98523.16;;;5.66;87.23
69971;BME280;57301;50.328;8.542;2023-03-21T05:37:53;98525.06;;;5.64;86.92
69971;BME280;57301;50.328;8.542;2023-03-21T05:40:23;98512.31;;;5.70;87.10
69971;BME280;57301;50.328;8.542;2023-03-21T05:42:49;98519.44;;;5.58;87.15
69971;BME280;57301;50.328;8.542;2023-03-21T05:45:16;98517.53;;;5.60;87.17
69971;BME280;57301;50.328;8.542;2023-03-21T05:47:42;98521.94;;;5.71;86.89
69971;BME280;57301;50.328;8.542;2023-03-21T05:50:10;98517.25;;;5.74;87.00
69971;BME280;57301;50.328;8.542;2023-03-21T05:52:37;98521.09;;;5.81;86.64
69971;BME280;57301;50.328;8.542;2023-03-21T05:55:03;98529.38;;;5.99;86.64
69971;BME280;57301;50.328;8.542;2023-03-21T05:57:30;98524.66;;;6.67;85.37
69971;BME280;57301;50.328;8.542;2023-03-21T06:00:00;98533.38;;;7.81;80.57
69971;BME280;57301;50.328;8.542;2023-03-21T06:02:26;98529.09;;;9.06;74.71
69971;BME280;57301;50.328;8.542;2023-03-21T06:04:53;98525.41;;;10.19;69.65
69971;BME280;57301;50.328;8.542;2023-03-21T06:07:20;98520.50;;;11.03;64.98
69971;BME280;57301;50.328;8.542;2023-03-21T06:09:46;98527.03;;;11.35;63.05
69971;BME280;57301;50.328;8.542;2023-03-21T06:12:13;98526.81;;;11.54;61.83
69971;BME280;57301;50.328;8.542;2023-03-21T06:14:39;98527.56;;;10.87;62.49
69971;BME280;57301;50.328;8.542;2023-03-21T06:17:06;98533.75;;;10.52;64.44
69971;BME280;57301;50.328;8.542;2023-03-21T06:19:32;98532.44;;;10.10;65.35
69971;BME280;57301;50.328;8.542;2023-03-21T06:21:59;98535.81;;;9.85;66.94
69971;BME280;57301;50.328;8.542;2023-03-21T06:24:25;98539.81;;;10.26;65.46
69971;BME280;57301;50.328;8.542;2023-03-21T06:26:52;98529.25;;;10.07;66.39
69971;BME280;57301;50.328;8.542;2023-03-21T06:29:19;98539.09;;;9.69;67.00
69971;BME280;57301;50.328;8.542;2023-03-21T06:31:45;98538.84;;;9.35;68.27
69971;BME280;57301;50.328;8.542;2023-03-21T06:34:12;98537.78;;;9.08;69.69
69971;BME280;57301;50.328;8.542;2023-03-21T06:36:39;98542.84;;;8.92;69.74
69971;BME280;57301;50.328;8.542;2023-03-21T06:39:06;98535.16;;;8.50;71.46
69971;BME280;57301;50.328;8.542;2023-03-21T06:41:33;98542.00;;;8.82;72.03
69971;BME280;57301;50.328;8.542;2023-03-21T06:44:00;98540.59;;;10.09;69.52
69971;BME280;57301;50.328;8.542;2023-03-21T06:46:26;98542.41;;;11.41;64.56
69971;BME280;57301;50.328;8.542;2023-03-21T06:48:53;98534.75;;;12.15;61.97
69971;BME280;57301;50.328;8.542;2023-03-21T06:51:19;98532.03;;;13.06;58.22
69971;BME280;57301;50.328;8.542;2023-03-21T06:53:46;98533.06;;;13.85;55.43
69971;BME280;57301;50.328;8.542;2023-03-21T06:56:13;98525.66;;;14.57;53.95
69971;BME280;57301;50.328;8.542;2023-03-21T06:58:40;98522.19;;;14.71;53.40
69971;BME280;57301;50.328;8.542;2023-03-21T07:01:07;98518.75;;;14.32;54.58
69971;BME280;57301;50.328;8.542;2023-03-21T07:03:34;98518.44;;;13.95;54.66
69971;BME280;57301;50.328;8.542;2023-03-21T07:06:07;98527.16;;;13.42;56.10
69971;BME280;57301;50.328;8.542;2023-03-21T07:08:37;98533.72;;;12.74;58.43
69971;BME280;57301;50.328;8.542;2023-03-21T07:11:04;98525.53;;;12.01;61.19
69971;BME280;57301;50.328;8.542;2023-03-21T07:13:31;98540.13;;;11.46;63.36
69971;BME280;57301;50.328;8.542;2023-03-21T07:15:59;98542.28;;;11.43;63.67
69971;BME280;57301;50.328;8.542;2023-03-21T07:18:26;98538.66;;;11.52;64.03
69971;BME280;57301;50.328;8.542;2023-03-21T07:20:52;98538.53;;;11.62;63.92
69971;BME280;57301;50.328;8.542;2023-03-21T07:23:21;98533.69;;;11.65;63.86
69971;BME280;57301;50.328;8.542;2023-03-21T07:25:48;98543.56;;;11.65;63.55
69971;BME280;57301;50.328;8.542;2023-03-21T07:28:15;98528.81;;;11.52;65.25
69971;BME280;57301;50.328;8.542;2023-03-21T07:30:43;98540.47;;;11.51;65.24
69971;BME280;57301;50.328;8.542;2023-03-21T07:33:11;98538.16;;;11.82;64.64
69971;BME280;57301;50.328;8.542;2023-03-21T07:35:37;98539.34;;;12.30;63.62
69971;BME280;57301;50.328;8.542;2023-03-21T07:38:04;98534.88;;;12.72;60.84
69971;BME280;57301;50.328;8.542;2023-03-21T07:40:31;98533.88;;;12.64;62.44
69971;BME280;57301;50.328;8.542;2023-03-21T07:42:58;98536.22;;;12.76;61.35
69971;BME280;57301;50.328;8.542;2023-03-21T07:45:24;98531.03;;;12.82;61.73
69971;BME280;57301;50.328;8.542;2023-03-21T07:47:52;98523.81;;;13.07;60.95
69971;BME280;57301;50.328;8.542;2023-03-21T07:50:20;98536.38;;;12.99;59.88
69971;BME280;57301;50.328;8.542;2023-03-21T07:52:47;98533.72;;;12.99;62.16
69971;BME280;57301;50.328;8.542;2023-03-21T07:55:14;98534.22;;;13.02;62.34
69971;BME280;57301;50.328;8.542;2023-03-21T07:57:42;98528.53;;;13.22;61.46
69971;BME280;57301;50.328;8.542;2023-03-21T08:00:09;98533.69;;;13.39;61.39
69971;BME280;57301;50.328;8.542;2023-03-21T08:02:37;98525.94;;;13.61;61.40
69971;BME280;57301;50.328;8.542;2023-03-21T08:05:04;98534.94;;;13.76;61.82
69971;BME280;57301;50.328;8.542;2023-03-21T08:07:31;98533.31;;;13.98;61.13
69971;BME280;57301;50.328;8.542;2023-03-21T08:09:57;98524.75;;;14.03;59.82
69971;BME280;57301;50.328;8.542;2023-03-21T08:12:24;98530.19;;;13.94;60.81
69971;BME280;57301;50.328;8.542;2023-03-21T08:14:50;98533.19;;;14.00;60.90
69971;BME280;57301;50.328;8.542;2023-03-21T08:17:17;98532.03;;;13.94;58.79
69971;BME280;57301;50.328;8.542;2023-03-21T08:19:43;98537.25;;;13.79;60.36
69971;BME280;57301;50.328;8.542;2023-03-21T08:22:10;98535.13;;;13.66;59.86
69971;BME280;57301;50.328;8.542;2023-03-21T08:24:37;98524.91;;;13.70;60.66
69971;BME280;57301;50.328;8.542;2023-03-21T08:27:03;98538.66;;;13.59;61.37
69971;BME280;57301;50.328;8.542;2023-03-21T08:29:30;98528.97;;;13.58;60.53
69971;BME280;57301;50.328;8.542;2023-03-21T08:31:57;98531.16;;;13.38;61.23
69971;BME280;57301;50.328;8.542;2023-03-21T08:34:23;98543.72;;;12.88;62.57
69971;BME280;57301;50.328;8.542;2023-03-21T08:36:52;98537.72;;;13.03;64.20
69971;BME280;57301;50.328;8.542;2023-03-21T08:39:18;98537.19;;;12.42;63.58
69971;BME280;57301;50.328;8.542;2023-03-21T08:41:46;98547.19;;;11.81;65.09
69971;BME280;57301;50.328;8.542;2023-03-21T08:44:13;98537.34;;;11.56;65.76
69971;BME280;57301;50.328;8.542;2023-03-21T08:46:42;98541.09;;;11.37;65.52
69971;BME280;57301;50.328;8.542;2023-03-21T08:49:09;98541.13;;;11.45;65.34
69971;BME280;57301;50.328;8.542;2023-03-21T08:51:36;98529.56;;;11.37;64.62
69971;BME280;57301;50.328;8.542;2023-03-21T08:54:03;98545.81;;;11.51;64.24
69971;BME280;57301;50.328;8.542;2023-03-21T08:56:29;98540.41;;;11.69;63.82
69971;BME280;57301;50.328;8.542;2023-03-21T08:58:56;98543.06;;;11.61;64.34
69971;BME280;57301;50.328;8.542;2023-03-21T09:01:24;98537.16;;;11.83;63.89
69971;BME280;57301;50.328;8.542;2023-03-21T09:03:51;98534.47;;;12.26;62.72
69971;BME280;57301;50.328;8.542;2023-03-21T09:06:18;98539.13;;;12.16;63.30
69971;BME280;57301;50.328;8.542;2023-03-21T09:08:44;98532.53;;;12.52;61.53
69971;BME280;57301;50.328;8.542;2023-03-21T09:11:11;98540.03;;;11.64;63.79
69971;BME280;57301;50.328;8.542;2023-03-21T09:13:38;98532.88;;;11.65;64.12
69971;BME280;57301;50.328;8.542;2023-03-21T09:16:05;98531.88;;;11.92;63.51
69971;BME280;57301;50.328;8.542;2023-03-21T09:18:31;98536.16;;;11.84;63.71
69971;BME280;57301;50.328;8.542;2023-03-21T09:21:10;98537.66;;;11.53;64.77
69971;BME280;57301;50.328;8.542;2023-03-21T09:23:42;98537.72;;;11.95;63.93
69971;BME280;57301;50.328;8.542;2023-03-21T09:26:10;98543.66;;;12.23;63.15
69971;BME280;57301;50.328;8.542;2023-03-21T09:28:38;98537.94;;;12.10;63.01
69971;BME280;57301;50.328;8.542;2023-03-21T09:31:06;98544.22;;;11.93;63.01
69971;BME280;57301;50.328;8.542;2023-03-21T09:33:34;98540.00;;;11.82;62.95
69971;BME280;57301;50.328;8.542;2023-03-21T09:36:00;98539.88;;;11.66;63.06
69971;BME280;57301;50.328;8.542;2023-03-21T09:38:27;98526.59;;;11.74;62.83
69971;BME280;57301;50.328;8.542;2023-03-21T09:40:58;98538.75;;;11.68;63.48
69971;BME280;57301;50.328;8.542;2023-03-21T09:46:31;98542.47;;;12.26;61.85
69971;BME280;57301;50.328;8.542;2023-03-21T09:49:16;98537.44;;;11.72;63.13
69971;BME280;57301;50.328;8.542;2023-03-21T09:51:45;98543.53;;;11.56;64.85
69971;BME280;57301;50.328;8.542;2023-03-21T09:54:19;98544.00;;;11.52;64.87
69971;BME280;57301;50.328;8.542;2023-03-21T09:56:50;98547.91;;;11.92;63.50
69971;BME280;57301;50.328;8.542;2023-03-21T09:59:25;98540.94;;;12.07;63.09
69971;BME280;57301;50.328;8.542;2023-03-21T10:01:54;98536.41;;;11.99;63.40
69971;BME280;57301;50.328;8.542;2023-03-21T10:04:23;98545.22;;;11.92;63.34
69971;BME280;57301;50.328;8.542;2023-03-21T10:06:56;98545.38;;;11.90;64.34
69971;BME280;57301;50.328;8.542;2023-03-21T10:09:25;98536.19;;;12.43;62.36
69971;BME280;57301;50.328;8.542;2023-03-21T10:12:02;98539.16;;;12.24;62.17
69971;BME280;57301;50.328;8.542;2023-03-21T10:14:38;98539.78;;;11.75;63.33
69971;BME280;57301;50.328;8.542;2023-03-21T10:17:13;98536.25;;;11.75;63.93
69971;BME280;57301;50.328;8.542;2023-03-21T10:19:45;98534.03;;;11.62;64.43
69971;BME280;57301;50.328;8.542;2023-03-21T10:22:14;98535.56;;;11.39;65.30
69971;BME280;57301;50.328;8.542;2023-03-21T10:24:40;98526.47;;;11.49;65.34
69971;BME280;57301;50.328;8.542;2023-03-21T10:27:08;98534.22;;;11.61;64.85
69971;BME280;57301;50.328;8.542;2023-03-21T10:29:43;98521.03;;;11.67;65.12
69971;BME280;57301;50.328;8.542;2023-03-21T10:32:14;98525.22;;;11.70;65.83
69971;BME280;57301;50.328;8.542;2023-03-21T10:34:45;98523.38;;;11.70;65.79
69971;BME280;57301;50.328;8.542;2023-03-21T10:37:13;98519.47;;;11.91;66.00
69971;BME280;57301;50.328;8.542;2023-03-21T10:39:44;98521.06;;;12.09;65.63
69971;BME280;57301;50.328;8.542;2023-03-21T10:42:22;98521.47;;;12.63;64.98
69971;BME280;57301;50.328;8.542;2023-03-21T10:44:52;98524.66;;;12.75;64.71
69971;BME280;57301;50.328;8.542;2023-03-21T10:47:21;98526.53;;;12.67;66.46
69971;BME280;57301;50.328;8.542;2023-03-21T10:49:48;98528.50;;;12.48;66.07
69971;BME280;57301;50.328;8.542;2023-03-21T10:52:34;98529.91;;;11.76;68.91
69971;BME280;57301;50.328;8.542;2023-03-21T10:57:34;98525.94;;;10.94;72.91
69971;BME280;57301;50.328;8.542;2023-03-21T11:00:04;98528.56;;;11.12;73.73
69971;BME280;57301;50.328;8.542;2023-03-21T11:02:41;98525.56;;;11.15;73.48
69971;BME280;57301;50.328;8.542;2023-03-21T11:05:40;98527.25;;;10.72;75.29
69971;BME280;57301;50.328;8.542;2023-03-21T11:08:17;98536.63;;;10.58;75.78
69971;BME280;57301;50.328;8.542;2023-03-21T11:10:58;98531.53;;;10.65;75.94
69971;BME280;57301;50.328;8.542;2023-03-21T11:13:33;98536.66;;;11.02;75.40
69971;BME280;57301;50.328;8.542;2023-03-21T11:18:44;98532.97;;;11.21;75.28
69971;BME280;57301;50.328;8.542;2023-03-21T11:21:14;98533.19;;;10.84;76.35
69971;BME280;57301;50.328;8.542;2023-03-21T11:23:47;98539.34;;;10.31;78.31
69971;BME280;57301;50.328;8.542;2023-03-21T11:26:28;98529.53;;;10.49;77.92
69971;BME280;57301;50.328;8.542;2023-03-21T11:28:56;98527.47;;;10.43;77.98
69971;BME280;57301;50.328;8.542;2023-03-21T11:31:37;98528.78;;;10.57;78.99
69971;BME280;57301;50.328;8.542;2023-03-21T11:34:05;98529.75;;;10.73;78.56
69971;BME280;57301;50.328;8.542;2023-03-21T11:36:34;98520.69;;;10.48;80.27
69971;BME280;57301;50.328;8.542;2023-03-21T11:39:14;98532.06;;;10.33;79.18
69971;BME280;57301;50.328;8.542;2023-03-21T11:41:50;98527.34;;;10.17;80.18
69971;BME280;57301;50.328;8.542;2023-03-21T11:44:30;98522.31;;;9.96;81.35
69971;BME280;57301;50.328;8.542;2023-03-21T11:46:57;98526.31;;;9.82;81.12
69971;BME280;57301;50.328;8.542;2023-03-21T11:49:25;98526.28;;;10.10;80.89
69971;BME280;57301;50.328;8.542;2023-03-21T11:52:13;98529.59;;;9.66;81.64
69971;BME280;57301;50.328;8.542;2023-03-21T11:55:26;98528.38;;;9.51;82.46
69971;BME280;57301;50.328;8.542;2023-03-21T11:58:07;98519.97;;;9.56;80.99
69971;BME280;57301;50.328;8.542;2023-03-21T12:03:20;98512.94;;;9.64;82.31
69971;BME280;57301;50.328;8.542;2023-03-21T12:06:01;98509.03;;;9.86;79.89
69971;BME280;57301;50.328;8.542;2023-03-21T12:11:21;98494.59;;;9.89;77.87
69971;BME280;57301;50.328;8.542;2023-03-21T12:14:11;98490.50;;;9.67;78.96
69971;BME280;57301;50.328;8.542;2023-03-21T12:22:09;98491.38;;;10.48;77.13
69971;BME280;57301;50.328;8.542;2023-03-21T12:24:54;98485.28;;;10.20;77.10
69971;BME280;57301;50.328;8.542;2023-03-21T12:30:14;98490.19;;;10.25;79.26
69971;BME280;57301;50.328;8.542;2023-03-21T12:35:38;98482.69;;;10.46;78.13
69971;BME280;57301;50.328;8.542;2023-03-21T12:38:17;98475.88;;;10.26;76.30
69971;BME280;57301;50.328;8.542;2023-03-21T12:40:54;98463.97;;;10.38;76.03
69971;BME280;57301;50.328;8.542;2023-03-21T12:45:58;98458.03;;;10.88;73.95
69971;BME280;57301;50.328;8.542;2023-03-21T12:51:07;98460.44;;;10.99;72.29
69971;BME280;57301;50.328;8.542;2023-03-21T12:56:28;98455.22;;;11.58;72.82
69971;BME280;57301;50.328;8.542;2023-03-21T12:59:19;98452.63;;;11.40;71.91
69971;BME280;57301;50.328;8.542;2023-03-21T13:01:50;98447.28;;;11.32;72.53
69971;BME280;57301;50.328;8.542;2023-03-21T13:07:00;98451.28;;;11.78;72.41
69971;BME280;57301;50.328;8.542;2023-03-21T13:09:40;98445.53;;;10.89;74.70
69971;BME280;57301;50.328;8.542;2023-03-21T13:12:33;98442.63;;;10.56;75.14
69971;BME280;57301;50.328;8.542;2023-03-21T13:17:58;98439.50;;;11.13;75.81
69971;BME280;57301;50.328;8.542;2023-03-21T13:20:43;98439.97;;;11.08;73.73
69971;BME280;57301;50.328;8.542;2023-03-21T13:23:12;98436.47;;;11.42;73.96
69971;BME280;57301;50.328;8.542;2023-03-21T13:25:45;98432.34;;;11.55;74.05
69971;BME280;57301;50.328;8.542;2023-03-21T13:28:27;98429.00;;;11.53;74.00
69971;BME280;57301;50.328;8.542;2023-03-21T13:31:27;98427.72;;;11.23;76.73
69971;BME280;57301;50.328;8.542;2023-03-21T13:34:07;98423.69;;;11.19;77.26
69971;BME280;57301;50.328;8.542;2023-03-21T13:36:34;98414.75;;;11.37;74.25
69971;BME280;57301;50.328;8.542;2023-03-21T13:39:04;98409.31;;;11.54;75.53
69971;BME280;57301;50.328;8.542;2023-03-21T13:41:34;98406.47;;;11.56;74.76
69971;BME280;57301;50.328;8.542;2023-03-21T13:49:30;98395.88;;;11.30;77.56
69971;BME280;57301;50.328;8.542;2023-03-21T13:51:59;98397.22;;;10.48;78.37
69971;BME280;57301;50.328;8.542;2023-03-21T13:57:03;98393.28;;;10.52;79.74
69971;BME280;57301;50.328;8.542;2023-03-21T13:59:38;98395.28;;;10.50;80.45
69971;BME280;57301;50.328;8.542;2023-03-21T14:04:41;98382.56;;;9.90;83.68
69971;BME280;57301;50.328;8.542;2023-03-21T14:07:35;98386.06;;;10.09;83.47
69971;BME280;57301;50.328;8.542;2023-03-21T14:10:13;98373.50;;;9.48;86.74
69971;BME280;57301;50.328;8.542;2023-03-21T14:12:43;98370.59;;;9.41;87.17
69971;BME280;57301;50.328;8.542;2023-03-21T14:15:17;98372.75;;;9.73;85.48
69971;BME280;57301;50.328;8.542;2023-03-21T14:18:05;98372.13;;;9.61;85.68
69971;BME280;57301;50.328;8.542;2023-03-21T14:20:56;98375.00;;;9.50;86.40
69971;BME280;57301;50.328;8.542;2023-03-21T14:23:24;98366.34;;;9.21;87.75
69971;BME280;57301;50.328;8.542;2023-03-21T14:25:51;98365.63;;;9.28;88.26
69971;BME280;57301;50.328;8.542;2023-03-21T14:28:26;98360.00;;;9.04;88.44
69971;BME280;57301;50.328;8.542;2023-03-21T14:30:56;98350.97;;;9.42;87.98
69971;BME280;57301;50.328;8.542;2023-03-21T14:33:36;98375.97;;;9.04;89.17
69971;BME280;57301;50.328;8.542;2023-03-21T14:36:08;98379.84;;;9.37;87.99
69971;BME280;57301;50.328;8.542;2023-03-21T14:38:37;98369.69;;;9.68;86.12